Time;durP1;ratioP1;P1;durP2;ratioP2;P2;SDS_P1;SDS_P2;PMS_P1;PMS_P2;Temp;Humidity;BMP_temperature;BMP_pressure;BME280_temperature;BME280_humidity;BME280_pressure;Samples;Min_cycle;Max_cycle;Signal;HPM_P1;HPM_P2
2022/04/09 00:00:36;;;;;;;;;;;;;;;;;;2140856;27;19930;-43
2022/04/09 00:01:38;;;;;;;;;;;;;;;;;;2140664;27;19923;-43
2022/04/09 00:02:39;;;;;;;;;;;;;;;;;;2140890;27;19923;-43
2022/04/09 00:03:40;;;;;;;;;;;;;;;;;;2140680;27;19923;-42
2022/04/09 00:04:41;;;;;;;;;;;;;;;;;;2141071;27;19923;-50
2022/04/09 00:05:42;;;;;;;;;;;;;;;;;;2140341;27;19933;-49
2022/04/09 00:06:43;;;;;;;;;;;;;;;;;;2140645;27;19958;-48
2022/04/09 00:07:44;;;;;;;;;;;;;;;;;;2140764;27;20406;-49
2022/04/09 00:08:45;;;;;;;;;;;;;;;;;;2140724;27;19930;-50
2022/04/09 00:09:46;;;;;;;;;;;;;;;;;;2140815;27;19922;-53
2022/04/09 00:10:48;;;;;;;;;;;;;;;;;;2140641;27;19930;-50
2022/04/09 00:11:49;;;;;;;;;;;;;;;;;;2140687;27;20003;-51
2022/04/09 00:12:50;;;;;;;;;;;;;;;;;;2140538;27;20001;-49
2022/04/09 00:13:52;;;;;;;;;;;;;;;;;;2138675;27;19923;-52
2022/04/09 00:14:53;;;;;;;;;;;;;;;;;;2140131;27;19923;-49
2022/04/09 00:15:54;;;;;;;;;;;;;;;;;;2140741;27;20299;-49
2022/04/09 00:16:55;;;;;;;;;;;;;;;;;;2140813;27;19927;-42
2022/04/09 00:17:56;;;;;;;;;;;;;;;;;;2140802;27;19929;-42
2022/04/09 00:18:57;;;;;;;;;;;;;;;;;;2140562;27;19922;-42
2022/04/09 00:19:58;;;;;;;;;;;;;;;;;;2140778;27;19930;-42
2022/04/09 00:20:59;;;;;;;;;;;;;;;;;;2140757;27;19923;-43
2022/04/09 00:22:00;;;;;;;;;;;;;;;;;;2140405;27;19922;-42
2022/04/09 00:23:01;;;;;;;;;;;;;;;;;;2140525;27;20201;-43
2022/04/09 00:24:02;;;;;;;;;;;;;;;;;;2140777;27;19926;-42
2022/04/09 00:25:04;;;;;;;;;;;;;;;;;;2140883;27;19930;-42
2022/04/09 00:26:05;;;;;;;;;;;;;;;;;;2140900;27;19923;-42
2022/04/09 00:27:06;;;;;;;;;;;;;;;;;;2140637;27;19930;-42
2022/04/09 00:28:07;;;;;;;;;;;;;;;;;;2140810;27;19922;-42
2022/04/09 00:29:08;;;;;;;;;;;;;;;;;;2141171;27;19951;-42
2022/04/09 00:30:09;;;;;;;;;;;;;;;;;;2140543;27;19923;-43
2022/04/09 00:31:10;;;;;;;;;;;;;;;;;;2140405;27;19937;-42
2022/04/09 00:32:11;;;;;;;;;;;;;;;;;;2140554;27;19923;-43
2022/04/09 00:33:12;;;;;;;;;;;;;;;;;;2140602;27;20013;-43
2022/04/09 00:34:13;;;;;;;;;;;;;;;;;;2140512;27;19922;-43
2022/04/09 00:35:15;;;;;;;;;;;;;;;;;;2140524;27;19923;-43
2022/04/09 00:36:16;;;;;;;;;;;;;;;;;;2140467;27;20391;-43
2022/04/09 00:37:17;;;;;;;;;;;;;;;;;;2140594;27;19923;-42
2022/04/09 00:38:18;;;;;;;;;;;;;;;;;;2140692;27;20018;-43
2022/04/09 00:39:19;;;;;;;;;;;;;;;;;;2140610;27;19923;-42
2022/04/09 00:40:20;;;;;;;;;;;;;;;;;;2140528;27;20384;-50
2022/04/09 00:41:21;;;;;;;;;;;;;;;;;;2139834;27;19933;-50
2022/04/09 00:42:22;;;;;;;;;;;;;;;;;;2140645;27;19960;-49
2022/04/09 00:43:23;;;;;;;;;;;;;;;;;;2140435;27;20339;-49
2022/04/09 00:44:24;;;;;;;;;;;;;;;;;;2140448;27;20383;-51
2022/04/09 00:45:25;;;;;;;;;;;;;;;;;;2140440;27;20025;-50
2022/04/09 00:46:26;;;;;;;;;;;;;;;;;;2140384;27;20276;-51
2022/04/09 00:47:27;;;;;;;;;;;;;;;;;;2140598;27;19930;-51
2022/04/09 00:48:29;;;;;;;;;;;;;;;;;;2140548;27;19965;-50
2022/04/09 00:49:30;;;;;;;;;;;;;;;;;;2140397;27;19927;-50
2022/04/09 00:50:31;;;;;;;;;;;;;;;;;;2140434;27;20285;-49
2022/04/09 00:51:32;;;;;;;;;;;;;;;;;;2140309;27;19970;-52
2022/04/09 00:52:34;;;;;;;;;;;;;;;;;;2140352;27;19927;-51
2022/04/09 00:53:35;;;;;;;;;;;;;;;;;;2140384;27;19926;-51
2022/04/09 00:54:36;;;;;;;;;;;;;;;;;;2140378;27;19989;-49
2022/04/09 00:56:56;;;;;;;;;;;;;;;;;;2140315;27;19930;-52
2022/04/09 00:57:57;;;;;;;;;;;;;;;;;;2140328;27;19966;-49
2022/04/09 00:58:58;;;;;;;;;;;;;;;;;;2140585;27;19923;-42
2022/04/09 01:00:00;;;;;;;;;;;;;;;;;;2140511;27;19923;-42
2022/04/09 01:01:01;;;;;;;;;;;;;;;;;;2140623;27;19975;-49
2022/04/09 01:02:02;;;;;;;;;;;;;;;;;;2140357;27;19937;-49
2022/04/09 01:03:03;;;;;;;;;;;;;;;;;;2140442;27;19922;-49
2022/04/09 01:04:04;;;;;;;;;;;;;;;;;;2140365;27;19923;-50
2022/04/09 01:05:05;;;;;;;;;;;;;;;;;;2140601;27;20427;-42
2022/04/09 01:06:06;;;;;;;;;;;;;;;;;;2140649;27;19934;-42
2022/04/09 01:07:07;;;;;;;;;;;;;;;;;;2140155;27;19934;-43
2022/04/09 01:08:08;;;;;;;;;;;;;;;;;;2140396;27;20291;-42
2022/04/09 01:09:09;;;;;;;;;;;;;;;;;;2140391;27;19923;-43
2022/04/09 01:10:10;;;;;;;;;;;;;;;;;;2140282;27;20367;-42
2022/04/09 01:11:11;;;;;;;;;;;;;;;;;;2139905;27;19923;-42
2022/04/09 01:12:12;;;;;;;;;;;;;;;;;;2140331;27;19934;-42
2022/04/09 01:13:13;;;;;;;;;;;;;;;;;;2140341;27;19926;-42
2022/04/09 01:14:14;;;;;;;;;;;;;;;;;;2137419;27;19977;-42
2022/04/09 01:15:15;;;;;;;;;;;;;;;;;;2131585;27;20360;-42
2022/04/09 01:16:16;;;;;;;;;;;;;;;;;;2131571;27;19926;-42
2022/04/09 01:17:17;;;;;;;;;;;;;;;;;;2131777;27;19958;-42
2022/04/09 01:18:18;;;;;;;;;;;;;;;;;;2131749;27;19930;-51
2022/04/09 01:19:19;;;;;;;;;;;;;;;;;;2131694;27;19923;-50
2022/04/09 01:20:20;;;;;;;;;;;;;;;;;;2131677;27;19923;-43
2022/04/09 01:21:21;;;;;;;;;;;;;;;;;;2140097;27;19923;-42
2022/04/09 01:22:22;;;;;;;;;;;;;;;;;;2140207;27;19929;-42
2022/04/09 01:23:23;;;;;;;;;;;;;;;;;;2140178;27;20477;-42
2022/04/09 01:24:24;;;;;;;;;;;;;;;;;;2140453;27;19935;-42
2022/04/09 01:25:25;;;;;;;;;;;;;;;;;;2140167;27;20432;-42
2022/04/09 01:26:26;;;;;;;;;;;;;;;;;;2140205;27;19923;-42
2022/04/09 01:27:27;;;;;;;;;;;;;;;;;;2140171;27;19923;-42
2022/04/09 01:28:28;;;;;;;;;;;;;;;;;;2140318;27;19930;-42
2022/04/09 01:29:29;;;;;;;;;;;;;;;;;;2140220;27;19937;-42
2022/04/09 01:30:30;;;;;;;;;;;;;;;;;;2140256;27;20351;-42
2022/04/09 01:31:30;;;;;;;;;;;;;;;;;;2140020;27;19930;-42
2022/04/09 01:32:32;;;;;;;;;;;;;;;;;;2140209;27;19930;-41
2022/04/09 01:33:32;;;;;;;;;;;;;;;;;;2140118;27;19935;-43
2022/04/09 01:34:34;;;;;;;;;;;;;;;;;;2140247;27;19926;-42
2022/04/09 01:35:34;;;;;;;;;;;;;;;;;;2140256;27;19926;-42
2022/04/09 01:36:36;;;;;;;;;;;;;;;;;;2140212;27;20367;-42
2022/04/09 01:37:36;;;;;;;;;;;;;;;;;;2140253;27;19923;-42
2022/04/09 01:38:37;;;;;;;;;;;;;;;;;;2140172;27;19923;-42
2022/04/09 01:39:38;;;;;;;;;;;;;;;;;;2139983;27;19929;-42
2022/04/09 01:40:39;;;;;;;;;;;;;;;;;;2140158;27;19927;-42
2022/04/09 01:41:40;;;;;;;;;;;;;;;;;;2140362;27;20406;-49
2022/04/09 01:42:41;;;;;;;;;;;;;;;;;;2140210;27;19926;-53
2022/04/09 01:43:42;;;;;;;;;;;;;;;;;;2140118;27;20014;-49
2022/04/09 01:44:43;;;;;;;;;;;;;;;;;;2140076;27;20010;-52
2022/04/09 01:45:44;;;;;;;;;;;;;;;;;;2140087;27;19923;-49
2022/04/09 01:46:45;;;;;;;;;;;;;;;;;;2140155;27;19922;-42
2022/04/09 01:47:47;;;;;;;;;;;;;;;;;;2140281;27;19929;-42
2022/04/09 01:48:48;;;;;;;;;;;;;;;;;;2140126;27;19927;-42
2022/04/09 01:49:49;;;;;;;;;;;;;;;;;;2140057;27;19927;-42
2022/04/09 01:50:50;;;;;;;;;;;;;;;;;;2140359;27;19930;-51
2022/04/09 01:51:51;;;;;;;;;;;;;;;;;;2139941;27;19929;-53
2022/04/09 01:52:53;;;;;;;;;;;;;;;;;;2141500;27;19927;-50
2022/04/09 01:53:54;;;;;;;;;;;;;;;;;;2141765;27;19950;-51
2022/04/09 01:54:55;;;;;;;;;;;;;;;;;;2141770;27;20010;-49
2022/04/09 01:55:56;;;;;;;;;;;;;;;;;;2141595;27;19967;-49
2022/04/09 01:56:57;;;;;;;;;;;;;;;;;;2141678;27;19922;-50
2022/04/09 01:57:58;;;;;;;;;;;;;;;;;;2141858;27;19946;-51
2022/04/09 01:58:59;;;;;;;;;;;;;;;;;;2141705;27;19949;-51
2022/04/09 02:00:00;;;;;;;;;;;;;;;;;;2141840;27;19977;-42
2022/04/09 02:01:00;;;;;;;;;;;;;;;;;;2141790;27;19922;-42
2022/04/09 02:02:02;;;;;;;;;;;;;;;;;;2141583;27;19923;-51
2022/04/09 02:03:03;;;;;;;;;;;;;;;;;;2141493;27;20387;-49
2022/04/09 02:04:04;;;;;;;;;;;;;;;;;;2141688;27;19934;-49
2022/04/09 02:05:05;;;;;;;;;;;;;;;;;;2141710;27;19923;-51
2022/04/09 02:06:06;;;;;;;;;;;;;;;;;;2141682;27;19930;-49
2022/04/09 02:07:06;;;;;;;;;;;;;;;;;;2141171;27;19923;-50
2022/04/09 02:08:08;;;;;;;;;;;;;;;;;;2141600;27;20333;-52
2022/04/09 02:09:11;;;;;;;;;;;;;;;;;;2141917;27;19930;-42
2022/04/09 02:10:12;;;;;;;;;;;;;;;;;;2141505;27;19927;-43
2022/04/09 02:11:14;;;;;;;;;;;;;;;;;;2141288;27;19911;-43
2022/04/09 02:12:15;;;;;;;;;;;;;;;;;;2141527;27;19922;-43
2022/04/09 02:13:18;;;;;;;;;;;;;;;;;;2141519;27;20371;-43
2022/04/09 02:14:19;;;;;;;;;;;;;;;;;;2141273;27;19983;-43
2022/04/09 02:15:20;;;;;;;;;;;;;;;;;;2141638;27;19930;-43
2022/04/09 02:16:21;;;;;;;;;;;;;;;;;;2141382;27;20387;-43
2022/04/09 02:17:22;;;;;;;;;;;;;;;;;;2141469;27;20333;-43
2022/04/09 02:18:23;;;;;;;;;;;;;;;;;;2141593;27;19948;-43
2022/04/09 02:19:24;;;;;;;;;;;;;;;;;;2141477;27;19922;-43
2022/04/09 02:20:25;;;;;;;;;;;;;;;;;;2141602;27;19923;-50
2022/04/09 02:21:26;;;;;;;;;;;;;;;;;;2141429;27;19930;-51
2022/04/09 02:22:27;;;;;;;;;;;;;;;;;;2141458;27;19923;-49
2022/04/09 02:23:28;;;;;;;;;;;;;;;;;;2141481;27;19930;-43
2022/04/09 02:24:29;;;;;;;;;;;;;;;;;;2141538;27;19926;-43
2022/04/09 02:25:30;;;;;;;;;;;;;;;;;;2141468;27;19930;-43
2022/04/09 02:26:31;;;;;;;;;;;;;;;;;;2141322;27;19946;-44
2022/04/09 02:27:32;;;;;;;;;;;;;;;;;;2141328;27;19926;-44
2022/04/09 02:28:34;;;;;;;;;;;;;;;;;;2141566;27;19931;-44
2022/04/09 02:29:35;;;;;;;;;;;;;;;;;;2141295;27;19922;-44
2022/04/09 02:30:36;;;;;;;;;;;;;;;;;;2141507;27;20363;-44
2022/04/09 02:31:37;;;;;;;;;;;;;;;;;;2141311;27;19923;-44
2022/04/09 02:32:38;;;;;;;;;;;;;;;;;;2141309;27;19937;-43
2022/04/09 02:33:39;;;;;;;;;;;;;;;;;;2141395;27;20359;-44
2022/04/09 02:34:40;;;;;;;;;;;;;;;;;;2141421;27;19930;-44
2022/04/09 02:35:41;;;;;;;;;;;;;;;;;;2141644;27;19923;-51
2022/04/09 02:36:42;;;;;;;;;;;;;;;;;;2141546;27;20039;-52
2022/04/09 02:37:44;;;;;;;;;;;;;;;;;;2141323;27;19922;-50
2022/04/09 02:38:44;;;;;;;;;;;;;;;;;;2141333;27;19972;-51
2022/04/09 02:39:45;;;;;;;;;;;;;;;;;;2141282;27;19923;-50
2022/04/09 02:40:46;;;;;;;;;;;;;;;;;;2141252;27;19922;-51
2022/04/09 02:41:47;;;;;;;;;;;;;;;;;;2141306;27;20394;-51
2022/04/09 02:42:49;;;;;;;;;;;;;;;;;;2141376;27;19922;-51
2022/04/09 02:43:50;;;;;;;;;;;;;;;;;;2141297;27;19938;-48
2022/04/09 02:44:51;;;;;;;;;;;;;;;;;;2141334;27;20268;-50
2022/04/09 02:45:52;;;;;;;;;;;;;;;;;;2141243;27;19942;-48
2022/04/09 02:46:53;;;;;;;;;;;;;;;;;;2141224;27;20416;-48
2022/04/09 02:47:55;;;;;;;;;;;;;;;;;;2141228;27;19923;-48
2022/04/09 02:48:56;;;;;;;;;;;;;;;;;;2141277;27;19983;-48
2022/04/09 02:49:56;;;;;;;;;;;;;;;;;;2141261;27;20394;-50
2022/04/09 02:50:58;;;;;;;;;;;;;;;;;;2141258;27;20014;-51
2022/04/09 02:51:59;;;;;;;;;;;;;;;;;;2140573;27;20379;-51
2022/04/09 02:53:01;;;;;;;;;;;;;;;;;;2141287;27;19923;-50
2022/04/09 02:54:01;;;;;;;;;;;;;;;;;;2141327;27;19971;-48
2022/04/09 02:55:03;;;;;;;;;;;;;;;;;;2141199;27;19927;-47
2022/04/09 02:56:04;;;;;;;;;;;;;;;;;;2141590;27;19927;-48
2022/04/09 02:57:05;;;;;;;;;;;;;;;;;;2140998;27;19923;-47
2022/04/09 02:58:07;;;;;;;;;;;;;;;;;;2141080;27;20283;-52
2022/04/09 02:59:08;;;;;;;;;;;;;;;;;;2140713;27;19930;-49
2022/04/09 03:00:11;;;;;;;;;;;;;;;;;;2141342;27;19923;-49
2022/04/09 03:01:12;;;;;;;;;;;;;;;;;;2141035;27;20328;-49
2022/04/09 03:02:13;;;;;;;;;;;;;;;;;;2141296;27;19973;-50
2022/04/09 03:03:14;;;;;;;;;;;;;;;;;;2140789;27;19923;-49
2022/04/09 03:04:15;;;;;;;;;;;;;;;;;;2140607;27;19926;-51
2022/04/09 03:05:16;;;;;;;;;;;;;;;;;;2141341;27;20430;-51
2022/04/09 03:06:17;;;;;;;;;;;;;;;;;;2140997;27;20037;-49
2022/04/09 03:07:18;;;;;;;;;;;;;;;;;;2141309;27;19967;-49
2022/04/09 03:08:19;;;;;;;;;;;;;;;;;;2141127;27;19923;-50
2022/04/09 03:09:20;;;;;;;;;;;;;;;;;;2141220;27;19923;-50
2022/04/09 03:10:21;;;;;;;;;;;;;;;;;;2141342;27;19927;-50
2022/04/09 03:11:39;;;;;;;;;;;;;;;;;;2141409;27;19930;-50
2022/04/09 03:12:48;;;;;;;;;;;;;;;;;;2131828;27;19930;-51
2022/04/09 03:13:49;;;;;;;;;;;;;;;;;;2133143;27;19923;-50
2022/04/09 03:14:50;;;;;;;;;;;;;;;;;;2132980;27;19931;-51
2022/04/09 03:15:51;;;;;;;;;;;;;;;;;;2132461;27;20372;-52
2022/04/09 03:16:52;;;;;;;;;;;;;;;;;;2132431;27;19923;-50
2022/04/09 03:17:53;;;;;;;;;;;;;;;;;;2132427;27;20055;-51
2022/04/09 03:18:55;;;;;;;;;;;;;;;;;;2132632;27;19923;-51
2022/04/09 03:19:56;;;;;;;;;;;;;;;;;;2132654;27;19946;-49
2022/04/09 03:20:56;;;;;;;;;;;;;;;;;;2132700;27;19923;-50
2022/04/09 03:21:58;;;;;;;;;;;;;;;;;;2132272;27;19923;-50
2022/04/09 03:22:58;;;;;;;;;;;;;;;;;;2132676;27;19931;-42
2022/04/09 03:24:00;;;;;;;;;;;;;;;;;;2132524;27;19923;-42
2022/04/09 03:25:00;;;;;;;;;;;;;;;;;;2132323;27;20360;-43
2022/04/09 03:26:01;;;;;;;;;;;;;;;;;;2132365;27;19923;-43
2022/04/09 03:27:02;;;;;;;;;;;;;;;;;;2132629;27;19927;-50
2022/04/09 03:28:04;;;;;;;;;;;;;;;;;;2132338;27;19962;-50
2022/04/09 03:29:05;;;;;;;;;;;;;;;;;;2132424;27;19968;-49
2022/04/09 03:30:05;;;;;;;;;;;;;;;;;;2132483;27;19927;-50
2022/04/09 03:31:07;;;;;;;;;;;;;;;;;;2132273;27;20260;-50
2022/04/09 03:32:08;;;;;;;;;;;;;;;;;;2132431;27;19930;-52
2022/04/09 03:33:09;;;;;;;;;;;;;;;;;;2132315;27;20376;-52
2022/04/09 03:34:10;;;;;;;;;;;;;;;;;;2132614;27;19930;-43
2022/04/09 03:35:11;;;;;;;;;;;;;;;;;;2132269;27;19930;-43
2022/04/09 03:36:12;;;;;;;;;;;;;;;;;;2132251;27;20411;-43
2022/04/09 03:37:13;;;;;;;;;;;;;;;;;;2132672;27;19930;-53
2022/04/09 03:38:14;;;;;;;;;;;;;;;;;;2132417;27;20413;-49
2022/04/09 03:39:15;;;;;;;;;;;;;;;;;;2132279;27;19930;-51
2022/04/09 03:40:16;;;;;;;;;;;;;;;;;;2132500;27;19927;-50
2022/04/09 03:41:17;;;;;;;;;;;;;;;;;;2132160;27;19931;-51
2022/04/09 03:42:20;;;;;;;;;;;;;;;;;;2132274;27;20002;-53
2022/04/09 03:43:22;;;;;;;;;;;;;;;;;;2132268;27;19923;-49
2022/04/09 03:44:23;;;;;;;;;;;;;;;;;;2132245;27;19934;-50
2022/04/09 03:45:24;;;;;;;;;;;;;;;;;;2132425;27;19927;-51
2022/04/09 03:46:25;;;;;;;;;;;;;;;;;;2132433;27;19945;-56
2022/04/09 03:47:26;;;;;;;;;;;;;;;;;;2132399;27;19927;-53
2022/04/09 03:48:27;;;;;;;;;;;;;;;;;;2132747;27;20232;-44
2022/04/09 03:49:28;;;;;;;;;;;;;;;;;;2132357;27;19948;-44
2022/04/09 03:50:29;;;;;;;;;;;;;;;;;;2132293;27;19923;-44
2022/04/09 03:51:30;;;;;;;;;;;;;;;;;;2132122;27;20257;-44
2022/04/09 03:52:31;;;;;;;;;;;;;;;;;;2132405;27;19923;-45
2022/04/09 03:53:32;;;;;;;;;;;;;;;;;;2132217;27;19924;-44
2022/04/09 03:54:35;;;;;;;;;;;;;;;;;;2132385;27;19927;-54
2022/04/09 03:55:36;;;;;;;;;;;;;;;;;;2132292;27;19923;-44
2022/04/09 03:56:40;;;;;;;;;;;;;;;;;;2139733;27;20401;-44
2022/04/09 03:57:41;;;;;;;;;;;;;;;;;;2141029;27;19975;-53
2022/04/09 03:58:43;;;;;;;;;;;;;;;;;;2140972;27;19971;-44
2022/04/09 03:59:44;;;;;;;;;;;;;;;;;;2140408;27;19967;-44
2022/04/09 04:00:45;;;;;;;;;;;;;;;;;;2140720;27;19923;-44
2022/04/09 04:01:47;;;;;;;;;;;;;;;;;;2140111;27;20424;-44
2022/04/09 04:02:48;;;;;;;;;;;;;;;;;;2140839;27;20363;-44
2022/04/09 04:03:49;;;;;;;;;;;;;;;;;;2140773;27;20005;-44
2022/04/09 04:04:50;;;;;;;;;;;;;;;;;;2140672;27;19922;-44
2022/04/09 04:05:51;;;;;;;;;;;;;;;;;;2140864;27;19927;-44
2022/04/09 04:06:52;;;;;;;;;;;;;;;;;;2140529;27;20315;-44
2022/04/09 04:07:53;;;;;;;;;;;;;;;;;;2140758;27;19927;-44
2022/04/09 04:08:55;;;;;;;;;;;;;;;;;;2140049;27;19929;-44
2022/04/09 04:09:56;;;;;;;;;;;;;;;;;;2140738;27;20307;-44
2022/04/09 04:10:57;;;;;;;;;;;;;;;;;;2140877;27;19923;-44
2022/04/09 04:11:58;;;;;;;;;;;;;;;;;;2140710;27;20199;-43
2022/04/09 04:13:00;;;;;;;;;;;;;;;;;;2141294;27;19930;-43
2022/04/09 04:14:01;;;;;;;;;;;;;;;;;;2139649;27;20026;-43
2022/04/09 04:15:02;;;;;;;;;;;;;;;;;;2131997;27;19930;-44
2022/04/09 04:16:04;;;;;;;;;;;;;;;;;;2131581;27;19926;-44
2022/04/09 04:17:05;;;;;;;;;;;;;;;;;;2132011;27;19923;-45
2022/04/09 04:18:06;;;;;;;;;;;;;;;;;;2132091;27;20416;-44
2022/04/09 04:19:06;;;;;;;;;;;;;;;;;;2132334;27;20295;-53
2022/04/09 04:20:08;;;;;;;;;;;;;;;;;;2132121;27;19923;-51
2022/04/09 04:21:08;;;;;;;;;;;;;;;;;;2132456;27;19934;-43
2022/04/09 04:22:10;;;;;;;;;;;;;;;;;;2132291;27;20284;-43
2022/04/09 04:23:11;;;;;;;;;;;;;;;;;;2132147;27;20316;-45
2022/04/09 04:24:12;;;;;;;;;;;;;;;;;;2132146;27;19930;-44
2022/04/09 04:25:13;;;;;;;;;;;;;;;;;;2131933;27;19934;-44
2022/04/09 04:26:14;;;;;;;;;;;;;;;;;;2131842;27;20383;-43
2022/04/09 04:27:15;;;;;;;;;;;;;;;;;;2131999;27;19923;-44
2022/04/09 04:28:16;;;;;;;;;;;;;;;;;;2131974;27;20450;-44
2022/04/09 04:29:17;;;;;;;;;;;;;;;;;;2132219;27;19930;-44
2022/04/09 04:30:18;;;;;;;;;;;;;;;;;;2132126;27;19923;-44
2022/04/09 04:31:19;;;;;;;;;;;;;;;;;;2131897;27;20287;-44
2022/04/09 04:32:20;;;;;;;;;;;;;;;;;;2132076;27;19923;-45
2022/04/09 04:33:26;;;;;;;;;;;;;;;;;;2132089;27;19929;-44
2022/04/09 04:34:27;;;;;;;;;;;;;;;;;;2132148;27;19923;-44
2022/04/09 04:35:28;;;;;;;;;;;;;;;;;;2135062;27;20013;-44
2022/04/09 04:36:29;;;;;;;;;;;;;;;;;;2140405;27;19975;-44
2022/04/09 04:37:30;;;;;;;;;;;;;;;;;;2140633;27;19971;-43
2022/04/09 04:38:35;;;;;;;;;;;;;;;;;;2140570;27;20328;-43
2022/04/09 04:39:36;;;;;;;;;;;;;;;;;;2141079;27;19922;-52
2022/04/09 04:40:37;;;;;;;;;;;;;;;;;;2140405;27;20395;-52
2022/04/09 04:41:38;;;;;;;;;;;;;;;;;;2140590;27;19923;-51
2022/04/09 04:42:39;;;;;;;;;;;;;;;;;;2140786;27;19922;-43
2022/04/09 04:43:40;;;;;;;;;;;;;;;;;;2140335;27;20287;-43
2022/04/09 04:44:41;;;;;;;;;;;;;;;;;;2140518;27;19965;-43
2022/04/09 04:45:42;;;;;;;;;;;;;;;;;;2140512;27;19923;-43
2022/04/09 04:46:43;;;;;;;;;;;;;;;;;;2140495;27;19933;-43
2022/04/09 04:47:44;;;;;;;;;;;;;;;;;;2140405;27;19922;-43
2022/04/09 04:48:45;;;;;;;;;;;;;;;;;;2140671;27;20395;-43
2022/04/09 04:49:46;;;;;;;;;;;;;;;;;;2140488;27;19922;-43
2022/04/09 04:50:47;;;;;;;;;;;;;;;;;;2140563;27;19923;-43
2022/04/09 04:51:48;;;;;;;;;;;;;;;;;;2140474;27;21095;-43
2022/04/09 04:52:49;;;;;;;;;;;;;;;;;;2140580;27;20412;-43
2022/04/09 04:53:51;;;;;;;;;;;;;;;;;;2140540;27;19927;-43
2022/04/09 04:54:51;;;;;;;;;;;;;;;;;;2140417;27;20299;-43
2022/04/09 04:55:53;;;;;;;;;;;;;;;;;;2136379;27;19927;-43
2022/04/09 04:56:53;;;;;;;;;;;;;;;;;;2132051;27;19934;-51
2022/04/09 04:57:55;;;;;;;;;;;;;;;;;;2131793;27;19946;-49
2022/04/09 04:58:56;;;;;;;;;;;;;;;;;;2131720;27;19923;-52
2022/04/09 04:59:58;;;;;;;;;;;;;;;;;;2131772;27;19930;-49
2022/04/09 05:01:02;;;;;;;;;;;;;;;;;;2131715;27;20483;-50
2022/04/09 05:02:03;;;;;;;;;;;;;;;;;;2131715;27;20018;-49
2022/04/09 05:03:05;;;;;;;;;;;;;;;;;;2131744;27;20379;-52
2022/04/09 05:04:06;;;;;;;;;;;;;;;;;;2132584;27;20436;-44
2022/04/09 05:05:07;;;;;;;;;;;;;;;;;;2131860;27;19931;-53
2022/04/09 05:06:08;;;;;;;;;;;;;;;;;;2131711;27;19930;-52
2022/04/09 05:07:09;;;;;;;;;;;;;;;;;;2132039;27;19930;-44
2022/04/09 05:08:10;;;;;;;;;;;;;;;;;;2131799;27;19923;-46
2022/04/09 05:09:13;;;;;;;;;;;;;;;;;;2131708;27;20376;-46
2022/04/09 05:10:13;;;;;;;;;;;;;;;;;;2132337;27;19923;-55
2022/04/09 05:11:15;;;;;;;;;;;;;;;;;;2131540;27;20347;-55
2022/04/09 05:12:16;;;;;;;;;;;;;;;;;;2131597;27;19934;-52
2022/04/09 05:13:17;;;;;;;;;;;;;;;;;;2131674;27;19927;-55
2022/04/09 05:14:18;;;;;;;;;;;;;;;;;;2134155;27;20424;-43
2022/04/09 05:15:19;;;;;;;;;;;;;;;;;;2131878;27;20006;-45
2022/04/09 05:16:20;;;;;;;;;;;;;;;;;;2131777;27;19948;-46
2022/04/09 05:17:21;;;;;;;;;;;;;;;;;;2131860;27;19923;-47
2022/04/09 05:18:22;;;;;;;;;;;;;;;;;;2132117;27;19930;-47
2022/04/09 05:19:24;;;;;;;;;;;;;;;;;;2131626;27;19950;-47
2022/04/09 05:20:24;;;;;;;;;;;;;;;;;;2131815;27;19923;-55
2022/04/09 05:21:26;;;;;;;;;;;;;;;;;;2136627;27;19929;-46
2022/04/09 05:22:27;;;;;;;;;;;;;;;;;;2140402;27;19929;-45
2022/04/09 05:23:28;;;;;;;;;;;;;;;;;;2140388;27;19922;-46
2022/04/09 05:24:29;;;;;;;;;;;;;;;;;;2140262;27;19934;-44
2022/04/09 05:25:31;;;;;;;;;;;;;;;;;;2140254;27;19923;-44
2022/04/09 05:26:32;;;;;;;;;;;;;;;;;;2140149;27;19922;-44
2022/04/09 05:27:33;;;;;;;;;;;;;;;;;;2139747;27;20493;-44
2022/04/09 05:28:34;;;;;;;;;;;;;;;;;;2140325;27;19923;-44
2022/04/09 05:29:35;;;;;;;;;;;;;;;;;;2140079;27;20295;-44
2022/04/09 05:30:36;;;;;;;;;;;;;;;;;;2140216;27;20375;-44
2022/04/09 05:31:37;;;;;;;;;;;;;;;;;;2140099;27;19922;-43
2022/04/09 05:32:39;;;;;;;;;;;;;;;;;;2140300;27;19923;-44
2022/04/09 05:33:41;;;;;;;;;;;;;;;;;;2140239;27;19946;-45
2022/04/09 05:34:42;;;;;;;;;;;;;;;;;;2140113;27;20297;-44
2022/04/09 05:35:43;;;;;;;;;;;;;;;;;;2140088;27;19927;-44
2022/04/09 05:36:43;;;;;;;;;;;;;;;;;;2140199;27;19922;-45
2022/04/09 05:37:45;;;;;;;;;;;;;;;;;;2140267;27;20381;-44
2022/04/09 05:38:46;;;;;;;;;;;;;;;;;;2140178;27;19923;-45
2022/04/09 05:39:47;;;;;;;;;;;;;;;;;;2140187;27;19923;-44
2022/04/09 05:40:48;;;;;;;;;;;;;;;;;;2140337;27;19929;-44
2022/04/09 05:41:49;;;;;;;;;;;;;;;;;;2140225;27;19923;-51
2022/04/09 05:42:51;;;;;;;;;;;;;;;;;;2140177;27;20015;-50
2022/04/09 05:43:52;;;;;;;;;;;;;;;;;;2140127;27;19979;-50
2022/04/09 05:44:53;;;;;;;;;;;;;;;;;;2139987;27;20346;-53
2022/04/09 05:45:54;;;;;;;;;;;;;;;;;;2139890;27;19927;-51
2022/04/09 05:46:55;;;;;;;;;;;;;;;;;;2140189;27;19923;-51
2022/04/09 05:47:56;;;;;;;;;;;;;;;;;;2140045;27;19923;-51
2022/04/09 05:48:57;;;;;;;;;;;;;;;;;;2140245;27;19923;-49
2022/04/09 05:49:58;;;;;;;;;;;;;;;;;;2140435;27;19929;-53
2022/04/09 05:50:59;;;;;;;;;;;;;;;;;;2140155;27;20291;-51
2022/04/09 05:52:00;;;;;;;;;;;;;;;;;;2139731;27;19922;-52
2022/04/09 05:53:02;;;;;;;;;;;;;;;;;;2140064;27;20270;-50
2022/04/09 05:54:03;;;;;;;;;;;;;;;;;;2140181;27;19927;-50
2022/04/09 05:55:04;;;;;;;;;;;;;;;;;;2140126;27;20427;-51
2022/04/09 05:56:05;;;;;;;;;;;;;;;;;;2140351;27;19934;-51
2022/04/09 05:57:06;;;;;;;;;;;;;;;;;;2139979;27;19929;-54
2022/04/09 05:58:07;;;;;;;;;;;;;;;;;;2140500;27;19923;-44
2022/04/09 05:59:08;;;;;;;;;;;;;;;;;;2140218;27;20287;-45
2022/04/09 06:00:20;;;;;;;;;;;;;;;;;;2140007;27;19923;-45
2022/04/09 06:01:21;;;;;;;;;;;;;;;;;;2140174;27;19922;-45
2022/04/09 06:02:22;;;;;;;;;;;;;;;;;;2140235;27;19923;-52
2022/04/09 06:03:23;;;;;;;;;;;;;;;;;;2139892;27;20341;-49
2022/04/09 06:04:24;;;;;;;;;;;;;;;;;;2140423;27;19967;-53
2022/04/09 06:05:26;;;;;;;;;;;;;;;;;;2140248;27;19923;-52
2022/04/09 06:06:27;;;;;;;;;;;;;;;;;;2139819;27;19923;-52
2022/04/09 06:07:28;;;;;;;;;;;;;;;;;;2140184;27;19930;-50
2022/04/09 06:08:29;;;;;;;;;;;;;;;;;;2140037;27;19957;-52
2022/04/09 06:09:30;;;;;;;;;;;;;;;;;;2140304;27;20291;-45
2022/04/09 06:10:32;;;;;;;;;;;;;;;;;;2140060;27;19930;-44
2022/04/09 06:11:33;;;;;;;;;;;;;;;;;;2140124;27;20371;-52
2022/04/09 06:12:34;;;;;;;;;;;;;;;;;;2139999;27;19923;-50
2022/04/09 06:13:35;;;;;;;;;;;;;;;;;;2140115;27;19930;-53
2022/04/09 06:14:36;;;;;;;;;;;;;;;;;;2133936;27;20289;-52
2022/04/09 06:15:37;;;;;;;;;;;;;;;;;;2131390;27;19967;-50
2022/04/09 06:16:40;;;;;;;;;;;;;;;;;;2131436;27;19988;-52
2022/04/09 06:17:41;;;;;;;;;;;;;;;;;;2131285;27;20018;-56
2022/04/09 06:18:43;;;;;;;;;;;;;;;;;;2131332;27;19977;-52
2022/04/09 06:19:43;;;;;;;;;;;;;;;;;;2131319;27;19934;-49
2022/04/09 06:20:44;;;;;;;;;;;;;;;;;;2131315;27;19946;-51
2022/04/09 06:21:45;;;;;;;;;;;;;;;;;;2131203;27;19931;-53
2022/04/09 06:22:47;;;;;;;;;;;;;;;;;;2131330;27;19947;-50
2022/04/09 06:23:47;;;;;;;;;;;;;;;;;;2131474;27;19923;-53
2022/04/09 06:24:49;;;;;;;;;;;;;;;;;;2131522;27;20295;-55
2022/04/09 06:25:49;;;;;;;;;;;;;;;;;;2131413;27;19923;-53
2022/04/09 06:26:51;;;;;;;;;;;;;;;;;;2131380;27;20410;-51
2022/04/09 06:27:52;;;;;;;;;;;;;;;;;;2131262;27;19945;-50
2022/04/09 06:28:52;;;;;;;;;;;;;;;;;;2131439;27;19930;-50
2022/04/09 06:29:54;;;;;;;;;;;;;;;;;;2131263;27;19966;-52
2022/04/09 06:30:54;;;;;;;;;;;;;;;;;;2131561;27;20403;-50
2022/04/09 06:31:56;;;;;;;;;;;;;;;;;;2131298;27;19923;-49
2022/04/09 06:32:57;;;;;;;;;;;;;;;;;;2131303;27;19923;-53
2022/04/09 06:33:58;;;;;;;;;;;;;;;;;;2131727;27;20360;-44
2022/04/09 06:34:59;;;;;;;;;;;;;;;;;;2131164;27;20291;-43
2022/04/09 06:36:00;;;;;;;;;;;;;;;;;;2131418;27;19930;-44
2022/04/09 06:37:01;;;;;;;;;;;;;;;;;;2131118;27;19946;-45
2022/04/09 06:38:04;;;;;;;;;;;;;;;;;;2131466;27;20440;-44
2022/04/09 06:39:05;;;;;;;;;;;;;;;;;;2131493;27;19923;-43
2022/04/09 06:40:07;;;;;;;;;;;;;;;;;;2132825;27;19969;-44
2022/04/09 06:41:08;;;;;;;;;;;;;;;;;;2132660;27;19930;-44
2022/04/09 06:42:09;;;;;;;;;;;;;;;;;;2132752;27;19942;-44
2022/04/09 06:43:09;;;;;;;;;;;;;;;;;;2132836;27;19930;-44
2022/04/09 06:44:11;;;;;;;;;;;;;;;;;;2132627;27;20283;-44
2022/04/09 06:45:13;;;;;;;;;;;;;;;;;;2132831;27;20375;-44
2022/04/09 06:46:15;;;;;;;;;;;;;;;;;;2132739;27;19923;-44
2022/04/09 06:47:16;;;;;;;;;;;;;;;;;;2132716;27;19927;-44
2022/04/09 06:48:17;;;;;;;;;;;;;;;;;;2136795;27;19934;-42
2022/04/09 06:49:18;;;;;;;;;;;;;;;;;;2141206;27;19922;-44
2022/04/09 06:50:19;;;;;;;;;;;;;;;;;;2141291;27;20394;-44
2022/04/09 06:51:20;;;;;;;;;;;;;;;;;;2141189;27;20013;-42
2022/04/09 06:52:21;;;;;;;;;;;;;;;;;;2141412;27;19923;-42
2022/04/09 06:53:22;;;;;;;;;;;;;;;;;;2141286;27;19922;-43
2022/04/09 06:54:23;;;;;;;;;;;;;;;;;;2141452;27;19923;-48
2022/04/09 06:55:24;;;;;;;;;;;;;;;;;;2141167;27;20013;-52
2022/04/09 06:56:25;;;;;;;;;;;;;;;;;;2141385;27;20367;-50
2022/04/09 06:57:26;;;;;;;;;;;;;;;;;;2141328;27;19922;-49
2022/04/09 06:58:27;;;;;;;;;;;;;;;;;;2141180;27;19922;-50
2022/04/09 06:59:28;;;;;;;;;;;;;;;;;;2141216;27;19922;-49